createdAt,value
2024-05-09T14:20:46.012Z,92875.34
2024-05-09T14:22:18.268Z,92876.38
2024-05-09T14:23:50.462Z,92879.19
2024-05-09T14:25:24.325Z,92866.75
2024-05-09T14:26:56.095Z,92866.19
2024-05-09T14:28:28.224Z,92864.72
2024-05-09T14:29:59.950Z,92867.09
2024-05-09T14:31:31.902Z,92864.50
2024-05-09T14:33:04.019Z,92864.94
2024-05-09T14:34:36.118Z,92864.13
2024-05-09T14:36:08.007Z,92865.25
2024-05-09T14:37:39.919Z,92863.72
2024-05-09T14:39:11.899Z,92863.34
2024-05-09T14:40:44.415Z,92862.94
2024-05-09T14:42:16.599Z,92861.44
2024-05-09T14:43:48.850Z,92857.13
2024-05-09T14:45:20.812Z,92864.06
2024-05-09T14:46:53.040Z,92860.09
2024-05-09T14:48:24.850Z,92860.56
2024-05-09T14:49:56.641Z,92854.00
2024-05-09T14:51:28.381Z,92857.03
2024-05-09T14:53:00.190Z,92857.38
2024-05-09T14:54:31.982Z,92861.34
2024-05-09T14:56:03.784Z,92864.84
2024-05-09T14:57:35.555Z,92861.09
2024-05-09T14:59:07.706Z,92866.97
2024-05-09T15:00:44.851Z,92862.00
2024-05-09T15:02:20.325Z,92865.25
2024-05-09T15:03:53.840Z,92865.03
2024-05-09T15:05:25.758Z,92864.09
2024-05-09T15:06:59.442Z,92876.84
2024-05-09T15:08:31.385Z,92879.97
2024-05-09T15:10:11.588Z,92873.94
2024-05-09T15:11:48.714Z,92882.31
2024-05-09T15:13:20.983Z,92886.13
2024-05-09T15:14:53.082Z,92881.22
2024-05-09T15:16:25.532Z,92881.78
2024-05-09T15:17:57.575Z,92887.41
2024-05-09T15:19:29.547Z,92884.09
2024-05-09T15:21:01.583Z,92886.44
2024-05-09T15:22:33.479Z,92885.31
2024-05-09T15:24:05.620Z,92887.69
2024-05-09T15:25:37.371Z,92890.41
2024-05-09T15:27:09.150Z,92883.38
2024-05-09T15:28:41.265Z,92884.94
2024-05-09T15:30:15.447Z,92886.22
2024-05-09T15:31:47.435Z,92883.91
2024-05-09T15:33:19.554Z,92885.13
2024-05-09T15:34:51.385Z,92893.88
2024-05-09T15:36:23.097Z,92896.47
2024-05-09T15:37:54.924Z,92898.84
2024-05-09T15:39:30.984Z,92898.28
2024-05-09T15:41:02.960Z,92904.28
2024-05-09T15:42:34.817Z,92897.38
2024-05-09T15:44:06.679Z,92909.13
2024-05-09T15:45:39.088Z,92910.44
2024-05-09T15:47:11.451Z,92905.91
2024-05-09T15:48:44.860Z,92902.06
2024-05-09T15:50:23.491Z,92906.38
2024-05-09T15:52:00.877Z,92903.22
2024-05-09T15:53:33.027Z,92906.94
2024-05-09T15:55:05.188Z,92908.75
2024-05-09T15:56:37.335Z,92915.25
2024-05-09T15:58:09.425Z,92916.03
2024-05-09T15:59:41.174Z,92914.78
2024-05-09T16:01:15.120Z,92915.56
2024-05-09T16:02:47.069Z,92919.44
2024-05-09T16:04:19.289Z,92917.38
2024-05-09T16:05:52.141Z,92919.75
2024-05-09T16:07:24.908Z,92919.53
2024-05-09T16:08:56.692Z,92922.34
2024-05-09T16:10:32.692Z,92928.22
2024-05-09T16:12:06.279Z,92926.28
2024-05-09T16:13:38.180Z,92928.66
2024-05-09T16:15:09.925Z,92936.13
2024-05-09T16:16:41.808Z,92932.34
2024-05-09T16:18:13.733Z,92929.31
2024-05-09T16:19:45.504Z,92938.25
2024-05-09T16:21:17.293Z,92940.09
2024-05-09T16:22:49.017Z,92933.75
2024-05-09T16:24:20.776Z,92937.59
2024-05-09T16:25:52.666Z,92936.69
2024-05-09T16:27:24.396Z,92935.38
2024-05-09T16:28:56.296Z,92939.91
2024-05-09T16:30:34.210Z,92937.50
2024-05-09T16:32:07.575Z,92940.19
2024-05-09T16:33:40.563Z,92937.19
2024-05-09T16:35:12.553Z,92937.28
2024-05-09T16:36:44.330Z,92934.25
2024-05-09T16:38:16.245Z,92938.53
2024-05-09T16:39:47.944Z,92939.34
2024-05-09T16:41:20.007Z,92933.78
2024-05-09T16:42:51.782Z,92944.41
2024-05-09T16:44:23.647Z,92938.09
2024-05-09T16:45:55.794Z,92947.69
2024-05-09T16:47:27.794Z,92951.78
2024-05-09T16:48:59.734Z,92952.00
2024-05-09T16:50:34.252Z,92948.50
2024-05-09T16:52:07.332Z,92953.94
2024-05-09T16:53:39.324Z,92957.69
2024-05-09T16:55:11.155Z,92961.06
2024-05-09T16:56:43.013Z,92958.25
2024-05-09T16:58:15.000Z,92960.63
2024-05-09T16:59:46.782Z,92954.06
2024-05-09T17:01:18.852Z,92958.50
2024-05-09T17:02:50.968Z,92967.63
2024-05-09T17:04:22.750Z,92962.09
2024-05-09T17:05:55.006Z,92972.72
2024-05-09T17:07:26.859Z,92973.97
2024-05-09T17:09:07.909Z,92976.56
2024-05-09T17:10:44.565Z,92972.84
2024-05-09T17:12:16.341Z,92976.81
2024-05-09T17:13:48.438Z,92974.88
2024-05-09T17:15:20.704Z,92978.25
2024-05-09T17:16:52.462Z,92979.28
2024-05-09T17:18:24.339Z,92978.72
2024-05-09T17:19:56.097Z,92977.47
2024-05-09T17:21:27.836Z,92981.97
2024-05-09T17:22:59.585Z,92986.25
2024-05-09T17:24:31.324Z,92987.38
2024-05-09T17:26:03.111Z,92981.88
2024-05-09T17:27:34.926Z,92988.41
2024-05-09T17:29:09.242Z,92993.38
2024-05-09T17:30:43.152Z,92991.56
2024-05-09T17:32:15.052Z,92990.13
2024-05-09T17:33:47.072Z,92987.19
2024-05-09T17:35:19.797Z,92984.59
2024-05-09T17:36:51.583Z,92991.25
2024-05-09T17:38:23.984Z,92994.75
2024-05-09T17:39:55.784Z,92996.56
2024-05-09T17:41:27.764Z,92991.94
2024-05-09T17:42:59.686Z,92994.66
2024-05-09T17:44:31.878Z,92994.66
2024-05-09T17:46:03.711Z,92996.22
2024-05-09T17:47:36.170Z,92991.47
2024-05-09T17:49:08.084Z,93000.72
2024-05-09T17:50:41.205Z,93002.50
2024-05-09T17:52:13.810Z,93009.47
2024-05-09T17:53:47.955Z,93007.50
2024-05-09T17:55:20.023Z,92998.34
2024-05-09T17:56:51.822Z,93001.47
2024-05-09T17:58:23.665Z,93004.63
2024-05-09T17:59:55.976Z,93003.84
2024-05-09T18:01:27.883Z,92999.88
2024-05-09T18:02:59.783Z,93003.72
2024-05-09T18:04:33.464Z,93005.44
2024-05-09T18:06:05.812Z,93003.84
2024-05-09T18:07:37.929Z,93004.97
2024-05-09T18:09:09.957Z,93013.41
2024-05-09T18:10:42.496Z,93012.81
2024-05-09T18:12:14.799Z,93005.69
2024-05-09T18:13:49.698Z,93010.66
2024-05-09T18:15:21.755Z,93019.56
2024-05-09T18:16:53.732Z,93014.47
2024-05-09T18:18:25.788Z,93016.38
2024-05-09T18:19:57.810Z,93023.25
2024-05-09T18:21:29.984Z,93014.69
2024-05-09T18:23:02.032Z,93026.28
2024-05-09T18:24:34.125Z,93018.94
2024-05-09T18:26:06.109Z,93026.97
2024-05-09T18:27:37.984Z,93024.56
2024-05-09T18:29:10.987Z,93026.81
2024-05-09T18:30:43.408Z,93028.94
2024-05-09T18:32:15.387Z,93028.78
2024-05-09T18:33:47.931Z,93034.22
2024-05-09T18:35:20.281Z,93035.00
2024-05-09T18:36:52.300Z,93033.09
2024-05-09T18:38:27.119Z,93042.78
2024-05-09T18:39:59.203Z,93034.22
2024-05-09T18:41:31.939Z,93041.06
2024-05-09T18:43:05.210Z,93041.72
2024-05-09T18:44:38.341Z,93044.75
2024-05-09T18:46:10.261Z,93038.38
2024-05-09T18:47:42.257Z,93042.84
2024-05-09T18:49:14.363Z,93043.22
2024-05-09T18:50:46.386Z,93034.22
2024-05-09T18:52:18.388Z,93053.22
2024-05-09T18:53:52.572Z,93048.97
2024-05-09T18:55:24.460Z,93052.00
2024-05-09T18:56:56.432Z,93050.41
2024-05-09T18:58:28.442Z,93048.81
2024-05-09T19:00:00.598Z,93056.97
2024-05-09T19:01:32.792Z,93057.47
2024-05-09T19:03:06.230Z,93063.84
2024-05-09T19:04:38.632Z,93058.75
2024-05-09T19:06:10.610Z,93061.13
2024-05-09T19:07:43.586Z,93073.69
2024-05-09T19:09:15.856Z,93066.19
2024-05-09T19:10:47.620Z,93068.38
2024-05-09T19:12:19.492Z,93072.81
2024-05-09T19:13:51.459Z,93077.25
2024-05-09T19:15:23.250Z,93071.66
2024-05-09T19:16:55.232Z,93076.44
2024-05-09T19:18:27.729Z,93081.84
2024-05-09T19:19:59.746Z,93083.09
2024-05-09T19:21:31.782Z,93081.84
2024-05-09T19:23:04.325Z,93073.72
2024-05-09T19:24:36.365Z,93080.41
2024-05-09T19:26:08.755Z,93091.53
2024-05-09T19:27:41.608Z,93091.06
2024-05-09T19:29:13.602Z,93094.88
2024-05-09T19:30:45.813Z,93092.03
2024-05-09T19:32:17.793Z,93090.78
2024-05-09T19:33:49.914Z,93085.69
2024-05-09T19:35:21.852Z,93092.03
2024-05-09T19:36:53.587Z,93094.88
2024-05-09T19:38:25.472Z,93096.47
2024-05-09T19:39:57.586Z,93092.66
2024-05-09T19:41:29.694Z,93094.88
2024-05-09T19:43:02.846Z,93095.66
2024-05-09T19:44:35.938Z,93097.59
2024-05-09T19:46:08.057Z,93095.19
2024-05-09T19:47:40.135Z,93097.78
2024-05-09T19:49:12.766Z,93095.53
2024-05-09T19:50:46.191Z,93102.03
2024-05-09T19:52:18.202Z,93103.19
2024-05-09T19:53:51.255Z,93097.94
2024-05-09T19:55:22.999Z,93098.91
2024-05-09T19:56:55.058Z,93099.69
2024-05-09T19:58:27.053Z,93101.28
2024-05-09T19:59:59.096Z,93102.88
2024-05-09T20:01:31.090Z,93098.25
2024-05-09T20:03:03.109Z,93104.31
2024-05-09T20:04:35.267Z,93099.88
2024-05-09T20:06:07.086Z,93108.78
2024-05-09T20:07:38.989Z,93104.81
2024-05-09T20:09:10.863Z,93106.72
2024-05-09T20:10:42.931Z,93104.81
2024-05-09T20:12:14.811Z,93106.41
2024-05-09T20:13:46.609Z,93109.59
2024-05-09T20:15:18.454Z,93110.06
2024-05-09T20:16:50.412Z,93109.59
2024-05-09T20:18:22.289Z,93111.81
2024-05-09T20:19:55.028Z,93120.22
2024-05-09T20:21:27.052Z,93111.66
2024-05-09T20:22:58.772Z,93116.94
2024-05-09T20:24:30.561Z,93109.94
2024-05-09T20:26:02.335Z,93115.00
2024-05-09T20:27:34.241Z,93114.66
2024-05-09T20:29:06.773Z,93110.06
2024-05-09T20:30:39.169Z,93115.00
2024-05-09T20:32:11.048Z,93111.69
2024-05-09T20:33:43.757Z,93113.44
2024-05-09T20:35:17.199Z,93110.59
2024-05-09T20:36:49.340Z,93111.22
2024-05-09T20:38:21.708Z,93114.09
2024-05-09T20:39:53.660Z,93103.78
2024-05-09T20:41:25.540Z,93112.03
2024-05-09T20:42:57.362Z,93104.91
2024-05-09T20:44:29.370Z,93108.88
2024-05-09T20:46:01.500Z,93104.59
2024-05-09T20:47:33.432Z,93106.50
2024-05-09T20:49:05.509Z,93104.94
2024-05-09T20:50:40.845Z,93108.75
2024-05-09T20:52:14.403Z,93110.97
2024-05-09T20:53:46.382Z,93105.06
2024-05-09T20:55:18.328Z,93112.97
2024-05-09T20:56:50.216Z,93111.75
2024-05-09T20:58:22.376Z,93106.34
2024-05-09T20:59:54.756Z,93109.03
2024-05-09T21:01:26.987Z,93102.03
2024-05-09T21:02:58.977Z,93109.03
2024-05-09T21:04:31.196Z,93106.66
2024-05-09T21:06:03.393Z,93111.88
2024-05-09T21:07:35.289Z,93106.00
2024-05-09T21:09:06.956Z,93113.47
2024-05-09T21:10:39.058Z,93110.16
2024-05-09T21:12:11.509Z,93116.66
2024-05-09T21:13:43.514Z,93106.66
2024-05-09T21:15:15.208Z,93112.69
2024-05-09T21:16:47.101Z,93113.47
2024-05-09T21:18:19.120Z,93116.81
2024-05-09T21:19:50.939Z,93117.28
2024-05-09T21:21:22.805Z,93107.59
2024-05-09T21:22:54.748Z,93109.66
2024-05-09T21:24:26.690Z,93105.53
2024-05-09T21:25:58.433Z,93113.31
2024-05-09T21:27:30.198Z,93112.84
2024-05-09T21:29:02.793Z,93118.53
2024-05-09T21:30:41.424Z,93107.44
2024-05-09T21:32:14.890Z,93108.22
2024-05-09T21:33:46.923Z,93111.25
2024-05-09T21:35:19.147Z,93112.84
2024-05-09T21:36:51.295Z,93115.06
2024-05-09T21:38:23.070Z,93118.84
2024-05-09T21:39:55.689Z,93121.91
2024-05-09T21:41:27.426Z,93114.91
2024-05-09T21:42:59.853Z,93115.72
2024-05-09T21:44:31.731Z,93121.41
2024-05-09T21:46:03.569Z,93114.13
2024-05-09T21:47:35.678Z,93112.53
2024-05-09T21:49:07.875Z,93112.34
2024-05-09T21:50:42.089Z,93111.06
2024-05-09T21:52:14.478Z,93108.53
2024-05-09T21:53:46.788Z,93106.16
2024-05-09T21:55:19.658Z,93108.38
2024-05-09T21:56:51.765Z,93103.94
2024-05-09T21:58:23.820Z,93105.22
2024-05-09T21:59:55.591Z,93107.75
2024-05-09T22:01:28.243Z,93109.34
2024-05-09T22:03:00.328Z,93103.16
2024-05-09T22:04:32.308Z,93110.13
2024-05-09T22:06:04.099Z,93109.97
2024-05-09T22:07:36.551Z,93104.09
2024-05-09T22:09:08.323Z,93104.56
2024-05-09T22:10:40.279Z,93100.91
2024-05-09T22:12:12.346Z,93108.38
2024-05-09T22:13:44.782Z,93102.97
2024-05-09T22:15:16.681Z,93090.59
2024-05-09T22:16:48.432Z,93095.84
2024-05-09T22:18:20.259Z,93101.25
2024-05-09T22:19:53.212Z,93092.50
2024-05-09T22:21:25.403Z,93091.09
2024-05-09T22:22:57.461Z,93097.28
2024-05-09T22:24:29.170Z,93105.69
2024-05-09T22:26:00.890Z,93104.88
2024-05-09T22:27:32.910Z,93107.09
2024-05-09T22:29:05.209Z,93101.06
2024-05-09T22:30:39.488Z,93089.63
2024-05-09T22:32:12.267Z,93097.72
2024-05-09T22:33:47.652Z,93102.31
2024-05-09T22:35:19.989Z,93096.25
2024-05-09T22:36:51.752Z,93103.88
2024-05-09T22:38:23.506Z,93092.94
2024-05-09T22:39:55.621Z,93098.16
2024-05-09T22:41:27.717Z,93107.66
2024-05-09T22:42:59.541Z,93101.78
2024-05-09T22:44:31.455Z,93091.94
2024-05-09T22:46:03.881Z,93092.31
2024-05-09T22:47:35.876Z,93091.03
2024-05-09T22:49:07.839Z,93086.31
2024-05-09T22:50:40.646Z,93087.25
2024-05-09T22:52:12.613Z,93090.41
2024-05-09T22:53:44.561Z,93083.91
2024-05-09T22:55:16.364Z,93086.63
2024-05-09T22:56:48.158Z,93086.94
2024-05-09T22:58:21.091Z,93083.59
2024-05-09T22:59:53.097Z,93082.81
2024-05-09T23:01:26.703Z,93083.91
2024-05-09T23:02:59.359Z,93069.78
2024-05-09T23:04:31.719Z,93072.63
2024-05-09T23:06:05.842Z,93067.06
2024-05-09T23:07:37.627Z,93067.69
2024-05-09T23:09:10.723Z,93074.97
2024-05-09T23:10:44.062Z,93073.72
2024-05-09T23:12:19.120Z,93071.66
2024-05-09T23:13:51.181Z,93076.25
2024-05-09T23:15:23.733Z,93064.06
2024-05-09T23:16:55.660Z,93067.19
2024-05-09T23:18:27.532Z,93068.97
2024-05-09T23:19:59.275Z,93070.25
2024-05-09T23:21:31.028Z,93071.03
2024-05-09T23:23:02.994Z,93064.84
2024-05-09T23:24:35.532Z,93072.78
2024-05-09T23:26:07.628Z,93066.41
2024-05-09T23:27:39.789Z,93063.41
2024-05-09T23:29:11.708Z,93064.19
2024-05-09T23:30:43.696Z,93066.59
2024-05-09T23:32:15.495Z,93066.28
2024-05-09T23:33:47.483Z,93063.09
2024-05-09T23:35:19.518Z,93066.41
2024-05-09T23:36:51.633Z,93056.75
2024-05-09T23:38:24.949Z,93054.84
2024-05-09T23:39:57.028Z,93052.00
2024-05-09T23:41:29.178Z,93056.72
2024-05-09T23:43:01.059Z,93052.13
2024-05-09T23:44:32.963Z,93062.28
2024-05-09T23:46:04.979Z,93060.38
2024-05-09T23:47:37.157Z,93058.00
2024-05-09T23:49:11.346Z,93057.19
2024-05-09T23:50:43.094Z,93053.38
2024-05-09T23:52:15.380Z,93060.13
2024-05-09T23:53:47.429Z,93059.47
2024-05-09T23:55:19.504Z,93053.44
2024-05-09T23:56:51.376Z,93061.81
2024-05-09T23:58:23.187Z,93059.44
2024-05-09T23:59:55.283Z,93059.91
